| time (UTC) | temp C | wind direction | speed KPH | gust KPH | rain 1hr cm | rain 24hr cm | rain mn cm | humidity % | barometer mb |
| 20260507051511 | 8 | 13 | 1.6 | 8.0 | 0.00 | 0.89 | 0.00 | 90 | 1008.4 |
| 20260507051005 | 8 | 1 | 4.8 | 8.0 | 0.00 | 0.89 | 0.00 | 91 | 1008.6 |
| 20260507050501 | 8 | 312 | 0.0 | 3.2 | 0.00 | 0.89 | 0.00 | 91 | 1008.7 |
| 20260507050003 | 8 | 342 | 0.0 | 3.2 | 0.00 | 0.89 | 0.00 | 91 | 1008.6 |
| 20260507045503 | 8 | 352 | 0.0 | 1.6 | 0.00 | 0.89 | 0.00 | 90 | 1008.5 |
| 20260507045003 | 9 | 352 | 0.0 | 3.2 | 0.00 | 0.89 | 0.00 | 90 | 1008.5 |
| 20260507044507 | 9 | 344 | 1.6 | 6.4 | 0.00 | 0.89 | 0.00 | 89 | 1008.7 |
| 20260507044002 | 9 | 351 | 1.6 | 6.4 | 0.00 | 0.89 | 0.00 | 90 | 1008.4 |
| 20260507043504 | 9 | 348 | 0.0 | 6.4 | 0.00 | 0.89 | 0.00 | 90 | 1008.2 |
| 20260507043006 | 9 | 331 | 1.6 | 8.0 | 0.00 | 0.89 | 0.00 | 90 | 1008.3 |
| 20260507042503 | 9 | 331 | 3.2 | 8.0 | 0.00 | 0.89 | 0.00 | 90 | 1008.3 |
| 20260507042003 | 9 | 332 | 1.6 | 6.4 | 0.00 | 0.89 | 0.00 | 89 | 1008.2 |
| 20260507041508 | 9 | 336 | 1.6 | 3.2 | 0.00 | 0.89 | 0.00 | 90 | 1008.1 |
| 20260507041002 | 9 | 59 | 0.0 | 4.8 | 0.00 | 0.89 | 0.00 | 90 | 1008.1 |
| 20260507040504 | 9 | 356 | 1.6 | 4.8 | 0.00 | 0.89 | 0.00 | 90 | 1008.2 |
| 20260507040013 | 9 | 347 | 0.0 | 6.4 | 0.00 | 0.89 | 0.00 | 90 | 1008.1 |
| 20260507035502 | 9 | 351 | 1.6 | 6.4 | 0.00 | 0.89 | 0.89 | 90 | 1008.2 |
| 20260507035005 | 9 | 13 | 1.6 | 4.8 | 0.00 | 0.89 | 0.89 | 91 | 1008.2 |
| 20260507034503 | 9 | 19 | 0.0 | 8.0 | 0.00 | 0.89 | 0.89 | 91 | 1008.3 |
| 20260507034001 | 9 | 326 | 0.0 | 8.0 | 0.00 | 0.89 | 0.89 | 91 | 1008.6 |
| 20260507033503 | 10 | 342 | 3.2 | 8.0 | 0.00 | 0.89 | 0.89 | 91 | 1008.3 |
| 20260507033003 | 10 | 347 | 1.6 | 8.0 | 0.00 | 0.89 | 0.89 | 92 | 1008.5 |
| 20260507032503 | 10 | 2 | 0.0 | 4.8 | 0.00 | 0.89 | 0.89 | 92 | 1008.3 |
| 20260507032002 | 10 | 352 | 0.0 | 6.4 | 0.00 | 0.89 | 0.89 | 91 | 1008.3 |
| 20260507031508 | 10 | 316 | 0.0 | 9.7 | 0.00 | 0.89 | 0.89 | 91 | 1008.2 |
| 20260507031005 | 10 | 325 | 1.6 | 9.7 | 0.00 | 0.89 | 0.89 | 91 | 1008.3 |
| 20260507030503 | 10 | 340 | 4.8 | 8.0 | 0.03 | 0.89 | 0.89 | 90 | 1008.1 |
| 20260507030013 | 10 | 333 | 4.8 | 11.3 | 0.05 | 0.89 | 0.89 | 90 | 1008.1 |
| 20260507025505 | 10 | 342 | 4.8 | 11.3 | 0.13 | 0.89 | 0.89 | 90 | 1008.2 |
| 20260507025007 | 10 | 327 | 4.8 | 9.7 | 0.15 | 0.89 | 0.89 | 90 | 1008.1 |
| 20260507024518 | 10 | 326 | 3.2 | 9.7 | 0.15 | 0.89 | 0.89 | 90 | 1007.9 |
| 20260507024009 | 10 | 336 | 3.2 | 14.5 | 0.15 | 0.89 | 0.89 | 90 | 1007.8 |
| 20260507023502 | 11 | 315 | 3.2 | 14.5 | 0.15 | 0.89 | 0.89 | 90 | 1007.9 |
| 20260507023003 | 11 | 349 | 4.8 | 12.9 | 0.15 | 0.89 | 0.89 | 91 | 1008.0 |
| 20260507022503 | 11 | 6 | 4.8 | 12.9 | 0.15 | 0.89 | 0.89 | 91 | 1008.0 |
| 20260507022004 | 11 | 342 | 6.4 | 12.9 | 0.15 | 0.89 | 0.89 | 92 | 1007.8 |
| 20260507021503 | 12 | 357 | 3.2 | 8.0 | 0.15 | 0.89 | 0.89 | 92 | 1007.8 |
| 20260507021003 | 12 | 331 | 0.0 | 8.0 | 0.15 | 0.89 | 0.89 | 92 | 1007.6 |
| 20260507020503 | 12 | 32 | 1.6 | 8.0 | 0.13 | 0.86 | 0.86 | 92 | 1007.5 |
| 20260507020010 | 12 | 347 | 4.8 | 8.0 | 0.10 | 0.84 | 0.84 | 92 | 1007.5 |
| 20260507015503 | 12 | 345 | 0.0 | 3.2 | 0.03 | 0.76 | 0.76 | 92 | 1007.6 |
| 20260507015003 | 12 | 242 | 0.0 | 1.6 | 0.00 | 0.74 | 0.74 | 93 | 1007.5 |
| 20260507014520 | 12 | 243 | 0.0 | 4.8 | 0.03 | 0.74 | 0.74 | 93 | 1007.1 |
| 20260507014007 | 13 | 243 | 0.0 | 4.8 | 0.03 | 0.74 | 0.74 | 93 | 1007.0 |
| 20260507013506 | 13 | 240 | 3.2 | 4.8 | 0.03 | 0.74 | 0.74 | 93 | 1006.9 |
| 20260507013021 | 13 | 236 | 0.0 | 3.2 | 0.03 | 0.74 | 0.74 | 93 | 1006.8 |
| 20260507012506 | 13 | 243 | 0.0 | 4.8 | 0.03 | 0.74 | 0.74 | 93 | 1006.8 |
| 20260507012004 | 13 | 206 | 1.6 | 4.8 | 0.08 | 0.74 | 0.74 | 92 | 1006.6 |
| 20260507011505 | 13 | 229 | 0.0 | 3.2 | 0.10 | 0.74 | 0.74 | 92 | 1006.5 |
| 20260507011004 | 13 | 187 | 0.0 | 1.6 | 0.13 | 0.74 | 0.74 | 92 | 1006.3 |
| 20260507010503 | 14 | 108 | 0.0 | 3.2 | 0.13 | 0.74 | 0.74 | 92 | 1006.2 |
| 20260507010024 | 14 | 248 | 0.0 | 3.2 | 0.13 | 0.74 | 0.74 | 91 | 1006.2 |
| 20260507005507 | 14 | 226 | 1.6 | 3.2 | 0.13 | 0.74 | 0.74 | 91 | 1006.1 |
| 20260507005003 | 14 | 79 | 0.0 | 3.2 | 0.13 | 0.74 | 0.74 | 91 | 1006.2 |
| 20260507004512 | 14 | 216 | 0.0 | 3.2 | 0.10 | 0.71 | 0.71 | 92 | 1006.3 |
| 20260507004005 | 14 | 131 | 0.0 | 3.2 | 0.10 | 0.71 | 0.71 | 92 | 1006.0 |
| 20260507003507 | 15 | 41 | 0.0 | 3.2 | 0.10 | 0.71 | 0.71 | 93 | 1006.0 |
| 20260507003014 | 15 | 231 | 0.0 | 6.4 | 0.10 | 0.71 | 0.71 | 93 | 1006.2 |
| 20260507002508 | 15 | 266 | 0.0 | 11.3 | 0.10 | 0.71 | 0.71 | 93 | 1006.1 |
| 20260507002009 | 15 | 227 | 0.0 | 11.3 | 0.05 | 0.66 | 0.66 | 93 | 1005.9 |
| 20260507001523 | 15 | 257 | 1.6 | 9.7 | 0.03 | 0.64 | 0.64 | 93 | 1005.7 |
| 20260507001006 | 15 | 252 | 4.8 | 12.9 | 0.00 | 0.61 | 0.61 | 92 | 1005.4 |
| 20260507000508 | 15 | 240 | 3.2 | 14.5 | 0.00 | 0.61 | 0.61 | 92 | 1005.2 |
| 20260507000004 | 15 | 184 | 8.0 | 14.5 | 0.00 | 0.61 | 0.61 | 92 | 1005.1 |
| 20260506235504 | 15 | 149 | 8.0 | 12.9 | 0.00 | 0.61 | 0.61 | 92 | 1005.1 |
| 20260506235004 | 15 | 207 | 6.4 | 14.5 | 0.00 | 0.61 | 0.61 | 92 | 1004.9 |
| 20260506234508 | 15 | 186 | 8.0 | 14.5 | 0.00 | 0.61 | 0.61 | 92 | 1004.9 |
| 20260506234005 | 15 | 208 | 9.7 | 12.9 | 0.00 | 0.61 | 0.61 | 91 | 1005.0 |
| 20260506233503 | 15 | 204 | 6.4 | 14.5 | 0.03 | 0.64 | 0.61 | 92 | 1005.0 |
| 20260506233013 | 15 | 167 | 8.0 | 14.5 | 0.03 | 0.64 | 0.61 | 91 | 1005.0 |
| 20260506232506 | 15 | 200 | 6.4 | 12.9 | 0.03 | 0.64 | 0.61 | 91 | 1004.9 |
| 20260506232008 | 15 | 248 | 6.4 | 12.9 | 0.03 | 0.64 | 0.61 | 92 | 1004.9 |
| 20260506231516 | 15 | 204 | 6.4 | 12.9 | 0.03 | 0.64 | 0.61 | 92 | 1004.9 |
| 20260506231007 | 15 | 175 | 6.4 | 11.3 | 0.03 | 0.64 | 0.61 | 92 | 1004.8 |
| 20260506230507 | 15 | 148 | 4.8 | 11.3 | 0.03 | 0.64 | 0.61 | 92 | 1004.8 |
| 20260506230024 | 15 | 155 | 3.2 | 11.3 | 0.03 | 0.64 | 0.61 | 92 | 1004.8 |
| 20260506225510 | 15 | 190 | 4.8 | 12.9 | 0.03 | 0.64 | 0.61 | 92 | 1004.8 |
| 20260506225008 | 15 | 154 | 8.0 | 16.1 | 0.03 | 0.64 | 0.61 | 92 | 1004.9 |
| 20260506224516 | 15 | 146 | 9.7 | 16.1 | 0.03 | 0.64 | 0.61 | 92 | 1004.8 |
| 20260506224004 | 15 | 182 | 4.8 | 12.9 | 0.03 | 0.64 | 0.61 | 92 | 1004.8 |
| 20260506223506 | 15 | 159 | 6.4 | 14.5 | 0.00 | 0.61 | 0.58 | 92 | 1004.8 |
| 20260506223009 | 15 | 188 | 4.8 | 16.1 | 0.00 | 0.61 | 0.58 | 92 | 1004.8 |
| 20260506222505 | 15 | 178 | 6.4 | 16.1 | 0.00 | 0.61 | 0.58 | 91 | 1004.8 |
| 20260506222005 | 15 | 166 | 8.0 | 14.5 | 0.00 | 0.61 | 0.58 | 91 | 1004.8 |
| 20260506221512 | 15 | 172 | 6.4 | 14.5 | 0.00 | 0.61 | 0.58 | 91 | 1004.9 |
| 20260506221007 | 15 | 203 | 6.4 | 19.3 | 0.00 | 0.61 | 0.58 | 91 | 1004.9 |
| 20260506220508 | 15 | 129 | 6.4 | 22.5 | 0.00 | 0.61 | 0.58 | 90 | 1004.9 |
| 20260506220032 | 15 | 214 | 11.3 | 22.5 | 0.00 | 0.61 | 0.58 | 90 | 1005.0 |
| 20260506215508 | 15 | 163 | 6.4 | 17.7 | 0.00 | 0.61 | 0.58 | 90 | 1004.9 |
| 20260506215006 | 15 | 136 | 11.3 | 16.1 | 0.00 | 0.61 | 0.58 | 90 | 1004.9 |
| 20260506214524 | 15 | 233 | 8.0 | 17.7 | 0.00 | 0.61 | 0.58 | 91 | 1004.9 |
| 20260506214010 | 15 | 162 | 4.8 | 17.7 | 0.00 | 0.61 | 0.58 | 91 | 1004.9 |
| 20260506213511 | 15 | 120 | 8.0 | 17.7 | 0.00 | 0.61 | 0.58 | 91 | 1004.9 |
| 20260506213007 | 15 | 193 | 8.0 | 20.9 | 0.00 | 0.61 | 0.58 | 90 | 1004.9 |
| 20260506212505 | 15 | 207 | 14.5 | 20.9 | 0.00 | 0.61 | 0.58 | 90 | 1005.0 |
| 20260506212005 | 15 | 198 | 9.7 | 20.9 | 0.00 | 0.61 | 0.58 | 90 | 1005.0 |
| 20260506211518 | 15 | 199 | 4.8 | 20.9 | 0.00 | 0.61 | 0.58 | 90 | 1004.9 |
| 20260506211004 | 15 | 133 | 8.0 | 22.5 | 0.00 | 0.61 | 0.58 | 90 | 1005.0 |
| 20260506210506 | 15 | 119 | 11.3 | 25.7 | 0.00 | 0.61 | 0.58 | 90 | 1004.9 |
| 20260506210017 | 15 | 209 | 11.3 | 25.7 | 0.00 | 0.61 | 0.58 | 90 | 1004.8 |
| 20260506205507 | 15 | 239 | 12.9 | 20.9 | 0.00 | 0.61 | 0.58 | 90 | 1004.8 |
| 20260506205010 | 15 | 207 | 6.4 | 17.7 | 0.00 | 0.61 | 0.58 | 90 | 1004.9 |
| 20260506204522 | 15 | 185 | 8.0 | 24.1 | 0.00 | 0.61 | 0.58 | 90 | 1004.9 |
| 20260506204008 | 15 | 174 | 11.3 | 24.1 | 0.00 | 0.61 | 0.58 | 90 | 1005.0 |
| 20260506203515 | 15 | 236 | 9.7 | 22.5 | 0.00 | 0.61 | 0.58 | 91 | 1005.1 |
| 20260506203025 | 15 | 191 | 8.0 | 20.9 | 0.03 | 0.61 | 0.58 | 91 | 1005.1 |
| 20260506202509 | 15 | 219 | 8.0 | 19.3 | 0.03 | 0.61 | 0.58 | 91 | 1005.2 |
| 20260506202004 | 15 | 228 | 9.7 | 19.3 | 0.05 | 0.61 | 0.58 | 91 | 1005.2 |
| 20260506201506 | 15 | 184 | 12.9 | 19.3 | 0.05 | 0.61 | 0.58 | 91 | 1005.3 |
| 20260506201005 | 15 | 205 | 8.0 | 24.1 | 0.05 | 0.61 | 0.58 | 91 | 1005.2 |
| 20260506200504 | 15 | 203 | 11.3 | 24.1 | 0.08 | 0.61 | 0.58 | 91 | 1005.3 |
| 20260506200012 | 15 | 154 | 11.3 | 24.1 | 0.08 | 0.61 | 0.58 | 91 | 1005.4 |
| 20260506195502 | 15 | 215 | 11.3 | 22.5 | 0.10 | 0.61 | 0.58 | 91 | 1005.4 |
| 20260506195004 | 15 | 148 | 8.0 | 20.9 | 0.10 | 0.61 | 0.58 | 91 | 1005.6 |
| 20260506194504 | 15 | 222 | 12.9 | 27.4 | 0.10 | 0.61 | 0.58 | 91 | 1005.6 |
| 20260506194006 | 15 | 195 | 11.3 | 27.4 | 0.13 | 0.61 | 0.58 | 91 | 1005.6 |
| 20260506193502 | 15 | 237 | 11.3 | 27.4 | 0.15 | 0.61 | 0.58 | 91 | 1005.7 |
| 20260506193005 | 15 | 188 | 14.5 | 29.0 | 0.15 | 0.58 | 0.56 | 90 | 1005.7 |
| 20260506192504 | 15 | 229 | 16.1 | 29.0 | 0.18 | 0.58 | 0.56 | 90 | 1005.8 |
| 20260506192004 | 16 | 203 | 9.7 | 25.7 | 0.15 | 0.56 | 0.53 | 90 | 1005.8 |
| 20260506191506 | 16 | 218 | 14.5 | 25.7 | 0.15 | 0.56 | 0.53 | 90 | 1005.7 |
| 20260506191004 | 16 | 207 | 12.9 | 22.5 | 0.18 | 0.56 | 0.53 | 90 | 1005.7 |
| 20260506190505 | 16 | 176 | 9.7 | 19.3 | 0.15 | 0.53 | 0.51 | 90 | 1005.6 |
| 20260506190007 | 16 | 162 | 9.7 | 22.5 | 0.15 | 0.53 | 0.51 | 90 | 1005.7 |
| 20260506185504 | 16 | 193 | 12.9 | 22.5 | 0.15 | 0.51 | 0.48 | 90 | 1005.8 |
| 20260506185003 | 16 | 205 | 11.3 | 17.7 | 0.18 | 0.51 | 0.48 | 90 | 1005.8 |
| 20260506184516 | 16 | 150 | 9.7 | 14.5 | 0.20 | 0.51 | 0.48 | 91 | 1005.8 |
| 20260506184002 | 16 | 127 | 8.0 | 11.3 | 0.20 | 0.48 | 0.46 | 91 | 1005.8 |
| 20260506183504 | 16 | 194 | 6.4 | 9.7 | 0.20 | 0.46 | 0.43 | 91 | 1005.8 |
| 20260506183003 | 16 | 179 | 4.8 | 8.0 | 0.20 | 0.43 | 0.41 | 91 | 1005.9 |
| 20260506182503 | 16 | 175 | 3.2 | 6.4 | 0.20 | 0.41 | 0.38 | 91 | 1006.0 |
| 20260506182003 | 16 | 251 | 1.6 | 4.8 | 0.23 | 0.41 | 0.38 | 91 | 1006.0 |
| 20260506181508 | 16 | 145 | 0.0 | 0.0 | 0.25 | 0.41 | 0.38 | 91 | 1005.9 |
| 20260506181004 | 16 | 130 | 0.0 | 1.6 | 0.25 | 0.38 | 0.36 | 91 | 1005.9 |
| 20260506180504 | 16 | 153 | 0.0 | 1.6 | 0.28 | 0.38 | 0.36 | 91 | 1006.2 |
| 20260506180011 | 16 | 153 | 0.0 | 1.6 | 0.30 | 0.38 | 0.36 | 90 | 1006.4 |
| 20260506175505 | 16 | 202 | 1.6 | 1.6 | 0.30 | 0.36 | 0.33 | 90 | 1006.5 |
| 20260506175004 | 16 | 171 | 0.0 | 4.8 | 0.28 | 0.33 | 0.30 | 90 | 1006.6 |
| 20260506174511 | 16 | 172 | 0.0 | 4.8 | 0.25 | 0.30 | 0.28 | 90 | 1006.6 |
| 20260506174004 | 16 | 162 | 1.6 | 4.8 | 0.23 | 0.28 | 0.25 | 89 | 1006.7 |
| 20260506173507 | 16 | 207 | 1.6 | 4.8 | 0.23 | 0.25 | 0.23 | 89 | 1006.8 |
| 20260506173020 | 16 | 203 | 0.0 | 8.0 | 0.20 | 0.23 | 0.20 | 89 | 1006.8 |
| 20260506172507 | 16 | 161 | 3.2 | 8.0 | 0.18 | 0.20 | 0.18 | 88 | 1006.9 |
| 20260506172004 | 16 | 179 | 0.0 | 4.8 | 0.15 | 0.18 | 0.15 | 87 | 1006.9 |
| 20260506171507 | 16 | 210 | 3.2 | 9.7 | 0.13 | 0.15 | 0.13 | 86 | 1007.0 |
| 20260506171006 | 16 | 218 | 1.6 | 9.7 | 0.10 | 0.13 | 0.10 | 86 | 1007.1 |
| 20260506170502 | 16 | 183 | 3.2 | 9.7 | 0.08 | 0.10 | 0.08 | 84 | 1007.0 |
| 20260506170008 | 17 | 202 | 4.8 | 9.7 | 0.05 | 0.08 | 0.05 | 84 | 1007.2 |
| 20260506165503 | 17 | 242 | 3.2 | 11.3 | 0.03 | 0.05 | 0.03 | 83 | 1007.1 |
| 20260506165004 | 17 | 220 | 6.4 | 16.1 | 0.03 | 0.05 | 0.03 | 82 | 1007.0 |
| 20260506164513 | 17 | 195 | 6.4 | 16.1 | 0.03 | 0.05 | 0.03 | 82 | 1007.0 |
| 20260506164003 | 17 | 229 | 4.8 | 14.5 | 0.03 | 0.05 | 0.03 | 81 | 1007.1 |
| 20260506163506 | 17 | 156 | 4.8 | 14.5 | 0.00 | 0.03 | 0.00 | 80 | 1007.1 |
| 20260506163015 | 17 | 233 | 6.4 | 14.5 | 0.00 | 0.03 | 0.00 | 80 | 1007.1 |
| 20260506162506 | 17 | 221 | 4.8 | 12.9 | 0.00 | 0.03 | 0.00 | 80 | 1007.1 |
| 20260506162009 | 17 | 216 | 9.7 | 16.1 | 0.00 | 0.03 | 0.00 | 79 | 1007.1 |
| 20260506161518 | 17 | 198 | 6.4 | 22.5 | 0.00 | 0.03 | 0.00 | 78 | 1007.2 |
| 20260506160505 | 17 | 228 | 11.3 | 20.9 | 0.00 | 0.03 | 0.00 | 77 | 1007.3 |
| 20260506160004 | 17 | 203 | 9.7 | 19.3 | 0.00 | 0.03 | 0.00 | 78 | 1007.4 |
| 20260506155503 | 17 | 240 | 8.0 | 20.9 | 0.00 | 0.03 | 0.00 | 78 | 1007.5 |
| 20260506155004 | 17 | 200 | 6.4 | 22.5 | 0.00 | 0.03 | 0.00 | 78 | 1007.5 |
| 20260506154516 | 17 | 208 | 11.3 | 22.5 | 0.00 | 0.03 | 0.00 | 79 | 1007.8 |
| 20260506154006 | 17 | 208 | 11.3 | 20.9 | 0.00 | 0.03 | 0.00 | 78 | 1007.7 |
| 20260506153504 | 17 | 214 | 11.3 | 22.5 | 0.00 | 0.03 | 0.00 | 78 | 1007.9 |
| 20260506153011 | 17 | 202 | 8.0 | 22.5 | 0.00 | 0.03 | 0.00 | 79 | 1008.0 |
| 20260506152507 | 17 | 154 | 11.3 | 22.5 | 0.00 | 0.03 | 0.00 | 78 | 1008.1 |
| 20260506152012 | 17 | 183 | 11.3 | 27.4 | 0.00 | 0.03 | 0.00 | 78 | 1008.2 |
| 20260506151517 | 17 | 177 | 11.3 | 27.4 | 0.00 | 0.03 | 0.00 | 79 | 1008.2 |
| 20260506151008 | 17 | 212 | 11.3 | 27.4 | 0.00 | 0.03 | 0.00 | 78 | 1008.1 |
| 20260506150508 | 17 | 194 | 8.0 | 16.1 | 0.00 | 0.03 | 0.00 | 79 | 1008.2 |
| 20260506150021 | 17 | 219 | 6.4 | 20.9 | 0.00 | 0.03 | 0.00 | 79 | 1008.2 |
| 20260506145005 | 17 | 184 | 12.9 | 17.7 | 0.00 | 0.03 | 0.00 | 78 | 1008.3 |
| 20260506144505 | 17 | 214 | 8.0 | 20.9 | 0.00 | 0.03 | 0.00 | 79 | 1008.2 |
| 20260506144006 | 17 | 198 | 9.7 | 20.9 | 0.00 | 0.03 | 0.00 | 78 | 1008.3 |
| 20260506143503 | 17 | 195 | 9.7 | 20.9 | 0.00 | 0.03 | 0.00 | 79 | 1008.4 |
| 20260506143009 | 17 | 219 | 9.7 | 20.9 | 0.00 | 0.03 | 0.00 | 79 | 1008.3 |
| 20260506142504 | 17 | 230 | 6.4 | 20.9 | 0.00 | 0.03 | 0.00 | 79 | 1008.1 |
| 20260506142008 | 17 | 182 | 8.0 | 19.3 | 0.00 | 0.03 | 0.00 | 78 | 1007.9 |
| 20260506141516 | 17 | 205 | 11.3 | 19.3 | 0.00 | 0.03 | 0.00 | 78 | 1008.1 |
| 20260506141009 | 17 | 245 | 11.3 | 17.7 | 0.00 | 0.03 | 0.00 | 79 | 1008.3 |
| 20260506140018 | 17 | 195 | 6.4 | 17.7 | 0.00 | 0.03 | 0.00 | 79 | 1008.2 |
| 20260506134525 | 16 | 194 | 9.7 | 14.5 | 0.00 | 0.03 | 0.00 | 81 | 1008.1 |
| 20260506133509 | 16 | 248 | 4.8 | 16.1 | 0.00 | 0.03 | 0.00 | 81 | 1008.0 |
| 20260506133006 | 16 | 222 | 6.4 | 16.1 | 0.00 | 0.03 | 0.00 | 81 | 1007.9 |
| 20260506132003 | 16 | 187 | 9.7 | 14.5 | 0.00 | 0.03 | 0.00 | 81 | 1008.1 |
| 20260506131527 | 16 | 184 | 4.8 | 11.3 | 0.00 | 0.03 | 0.00 | 82 | 1008.1 |
| 20260506125011 | 15 | 207 | 8.0 | 16.1 | 0.00 | 0.03 | 0.00 | 83 | 1008.5 |
| 20260506124521 | 15 | 194 | 9.7 | 20.9 | 0.00 | 0.03 | 0.00 | 82 | 1008.5 |
| 20260506124010 | 15 | 250 | 6.4 | 24.1 | 0.00 | 0.03 | 0.00 | 83 | 1008.6 |
| 20260506123508 | 15 | 217 | 8.0 | 24.1 | 0.00 | 0.03 | 0.00 | 83 | 1008.6 |
| 20260506123024 | 15 | 191 | 12.9 | 24.1 | 0.00 | 0.03 | 0.00 | 83 | 1008.6 |
| 20260506122511 | 15 | 214 | 11.3 | 20.9 | 0.00 | 0.03 | 0.00 | 83 | 1008.6 |
| 20260506122010 | 15 | 203 | 14.5 | 22.5 | 0.00 | 0.03 | 0.00 | 83 | 1008.6 |
| 20260506121512 | 15 | 167 | 11.3 | 22.5 | 0.00 | 0.03 | 0.00 | 83 | 1008.7 |
| 20260506120018 | 15 | 219 | 11.3 | 20.9 | 0.00 | 0.03 | 0.00 | 83 | 1008.4 |
| 20260506114007 | 15 | 211 | 11.3 | 24.1 | 0.00 | 0.03 | 0.00 | 84 | 1008.4 |
| 20260506113024 | 15 | 187 | 8.0 | 19.3 | 0.00 | 0.03 | 0.00 | 83 | 1008.6 |
| 20260506112506 | 15 | 194 | 8.0 | 19.3 | 0.00 | 0.03 | 0.00 | 83 | 1008.6 |
| 20260506105505 | 15 | 202 | 11.3 | 22.5 | 0.00 | 0.03 | 0.00 | 83 | 1008.7 |
| 20260506104003 | 15 | 214 | 9.7 | 17.7 | 0.00 | 0.03 | 0.00 | 83 | 1008.7 |
| 20260506103503 | 14 | 207 | 11.3 | 20.9 | 0.00 | 0.03 | 0.00 | 83 | 1008.7 |
| 20260506103004 | 14 | 184 | 11.3 | 20.9 | 0.00 | 0.03 | 0.00 | 84 | 1008.7 |
| 20260506102503 | 14 | 214 | 9.7 | 16.1 | 0.00 | 0.03 | 0.00 | 84 | 1008.5 |
| 20260506102004 | 14 | 255 | 4.8 | 14.5 | 0.00 | 0.03 | 0.00 | 84 | 1008.6 |
| 20260506101516 | 14 | 193 | 8.0 | 14.5 | 0.00 | 0.03 | 0.00 | 84 | 1008.6 |
| 20260506101003 | 14 | 176 | 6.4 | 12.9 | 0.00 | 0.03 | 0.00 | 84 | 1008.5 |
| 20260506100506 | 14 | 181 | 6.4 | 11.3 | 0.00 | 0.03 | 0.00 | 84 | 1008.6 |
| 20260506100007 | 14 | 248 | 6.4 | 11.3 | 0.00 | 0.03 | 0.00 | 84 | 1008.6 |
| 20260506095508 | 14 | 259 | 6.4 | 12.9 | 0.00 | 0.03 | 0.00 | 84 | 1008.6 |
| 20260506095008 | 14 | 216 | 4.8 | 12.9 | 0.00 | 0.03 | 0.00 | 84 | 1008.4 |
| 20260506094519 | 14 | 172 | 6.4 | 12.9 | 0.00 | 0.03 | 0.00 | 83 | 1008.3 |
| 20260506094007 | 14 | 214 | 6.4 | 11.3 | 0.00 | 0.03 | 0.00 | 83 | 1008.4 |
| 20260506093507 | 14 | 228 | 6.4 | 11.3 | 0.00 | 0.03 | 0.00 | 83 | 1008.3 |
| 20260506092505 | 14 | 162 | 4.8 | 16.1 | 0.00 | 0.03 | 0.00 | 83 | 1008.6 |
| 20260506092003 | 14 | 225 | 4.8 | 16.1 | 0.00 | 0.03 | 0.00 | 83 | 1008.5 |
| 20260506091505 | 14 | 198 | 4.8 | 9.7 | 0.00 | 0.03 | 0.00 | 83 | 1008.6 |
| 20260506091003 | 14 | 278 | 4.8 | 8.0 | 0.00 | 0.03 | 0.00 | 83 | 1008.5 |
| 20260506090505 | 13 | 170 | 3.2 | 9.7 | 0.00 | 0.03 | 0.00 | 83 | 1008.5 |
| 20260506090005 | 13 | 224 | 3.2 | 9.7 | 0.00 | 0.03 | 0.00 | 84 | 1008.6 |
| 20260506085508 | 13 | 249 | 3.2 | 6.4 | 0.00 | 0.03 | 0.00 | 84 | 1008.6 |
| 20260506085002 | 13 | 238 | 1.6 | 8.0 | 0.00 | 0.03 | 0.00 | 83 | 1008.6 |
| 20260506084511 | 13 | 227 | 3.2 | 8.0 | 0.00 | 0.03 | 0.00 | 84 | 1008.6 |
| 20260506084007 | 13 | 238 | 3.2 | 6.4 | 0.00 | 0.03 | 0.00 | 84 | 1008.7 |
| 20260506083504 | 13 | 247 | 1.6 | 3.2 | 0.00 | 0.03 | 0.00 | 84 | 1008.8 |
| 20260506083015 | 13 | 220 | 0.0 | 6.4 | 0.00 | 0.03 | 0.00 | 83 | 1008.6 |
| 20260506082504 | 13 | 236 | 1.6 | 6.4 | 0.00 | 0.03 | 0.00 | 83 | 1008.6 |
| 20260506082010 | 13 | 205 | 3.2 | 4.8 | 0.00 | 0.03 | 0.00 | 83 | 1008.6 |
| 20260506081526 | 13 | 245 | 0.0 | 4.8 | 0.00 | 0.03 | 0.00 | 83 | 1008.7 |
| 20260506081004 | 13 | 248 | 1.6 | 4.8 | 0.00 | 0.03 | 0.00 | 83 | 1008.6 |
| 20260506080503 | 13 | 256 | 3.2 | 4.8 | 0.00 | 0.03 | 0.00 | 83 | 1008.7 |
| 20260506073504 | 13 | 218 | 0.0 | 1.6 | 0.00 | 0.03 | 0.00 | 83 | 1008.6 |
| 20260506073013 | 13 | 216 | 0.0 | 0.0 | 0.00 | 0.03 | 0.00 | 82 | 1008.7 |
| 20260506072504 | 13 | 216 | 0.0 | 1.6 | 0.00 | 0.03 | 0.00 | 81 | 1008.7 |
| 20260506072008 | 13 | 216 | 0.0 | 1.6 | 0.00 | 0.03 | 0.00 | 81 | 1008.7 |
| 20260506071520 | 14 | 216 | 0.0 | 1.6 | 0.00 | 0.03 | 0.00 | 80 | 1008.8 |
| 20260506071007 | 14 | 216 | 0.0 | 1.6 | 0.00 | 0.03 | 0.00 | 79 | 1008.7 |
| 20260506062505 | 16 | 166 | 3.2 | 6.4 | 0.00 | 0.03 | 0.00 | 74 | 1008.4 |
| 20260506062007 | 16 | 234 | 3.2 | 8.0 | 0.00 | 0.03 | 0.00 | 74 | 1008.5 |
| 20260506061520 | 16 | 274 | 3.2 | 8.0 | 0.00 | 0.03 | 0.00 | 74 | 1008.5 |
| 20260506061006 | 16 | 233 | 3.2 | 11.3 | 0.00 | 0.03 | 0.00 | 74 | 1008.5 |
| 20260506060507 | 16 | 227 | 4.8 | 11.3 | 0.00 | 0.03 | 0.00 | 73 | 1008.5 |